Time;durP1;ratioP1;P1;durP2;ratioP2;P2;SDS_P1;SDS_P2;PMS_P1;PMS_P2;Temp;Humidity;BMP_temperature;BMP_pressure;BME280_temperature;BME280_humidity;BME280_pressure;Samples;Min_cycle;Max_cycle;Signal;HPM_P1;HPM_P2
2021/10/10 00:01:03;;;;;;;19.38;10.00;;;8.90;74.20;;;;;;5055388;28;20079;-67
2021/10/10 00:03:29;;;;;;;16.63;10.43;;;8.90;75.10;;;;;;5058142;28;20078;-67
2021/10/10 00:05:55;;;;;;;15.02;9.73;;;8.90;74.20;;;;;;5056647;28;20032;-67
2021/10/10 00:08:20;;;;;;;15.63;9.40;;;8.90;74.30;;;;;;5057334;28;20495;-68
2021/10/10 00:10:46;;;;;;;14.15;10.10;;;8.80;74.20;;;;;;5052000;28;20035;-67
2021/10/10 00:13:11;;;;;;;15.02;9.85;;;8.80;74.20;;;;;;5054981;28;20029;-67
2021/10/10 00:15:37;;;;;;;16.83;9.93;;;8.80;74.20;;;;;;5057221;28;20037;-67
2021/10/10 00:18:03;;;;;;;15.30;9.95;;;8.80;74.30;;;;;;5056205;28;20032;-67
2021/10/10 00:20:28;;;;;;;14.50;9.85;;;8.80;74.40;;;;;;5058235;28;20059;-67
2021/10/10 00:22:54;;;;;;;21.20;9.60;;;8.70;74.30;;;;;;5055706;28;20029;-67
2021/10/10 00:25:20;;;;;;;16.67;9.75;;;8.70;74.30;;;;;;5057318;28;20154;-66
2021/10/10 00:27:45;;;;;;;15.93;9.70;;;8.70;74.30;;;;;;5058288;28;20632;-67
2021/10/10 00:30:11;;;;;;;17.25;10.27;;;8.70;74.30;;;;;;5054430;28;20033;-68
2021/10/10 00:32:37;;;;;;;16.23;9.75;;;8.60;74.20;;;;;;5057019;28;20041;-67
2021/10/10 00:35:04;;;;;;;14.90;9.27;;;8.60;74.40;;;;;;5057886;28;20120;-67
2021/10/10 00:37:30;;;;;;;15.25;10.65;;;8.60;74.60;;;;;;5056719;28;20518;-67
2021/10/10 00:39:56;;;;;;;15.70;10.43;;;8.60;74.60;;;;;;5054862;28;20041;-67
2021/10/10 00:42:22;;;;;;;17.80;10.75;;;8.60;74.60;;;;;;5058687;28;20040;-67
2021/10/10 00:44:48;;;;;;;16.27;10.18;;;8.60;74.70;;;;;;5057559;28;20151;-67
2021/10/10 00:47:15;;;;;;;16.27;10.60;;;8.50;74.70;;;;;;5055987;28;20025;-67
2021/10/10 00:49:41;;;;;;;15.27;10.48;;;8.50;74.70;;;;;;5058547;28;20670;-67
2021/10/10 00:52:10;;;;;;;15.40;10.25;;;8.50;74.90;;;;;;5058254;28;20569;-67
2021/10/10 00:54:36;;;;;;;19.05;10.45;;;8.50;74.90;;;;;;5056318;28;20040;-67
2021/10/10 00:57:05;;;;;;;16.98;10.02;;;8.50;74.90;;;;;;5056092;28;20504;-67
2021/10/10 00:59:33;;;;;;;15.70;9.32;;;8.50;75.00;;;;;;5056194;28;20033;-67
2021/10/10 01:01:59;;;;;;;14.50;9.73;;;8.40;74.90;;;;;;5054363;28;20107;-67
2021/10/10 01:04:24;;;;;;;23.08;9.80;;;8.40;74.90;;;;;;5057405;28;20037;-67
2021/10/10 01:06:50;;;;;;;17.48;9.77;;;8.40;75.90;;;;;;5058562;28;20504;-67
2021/10/10 01:09:16;;;;;;;16.10;10.43;;;8.40;75.00;;;;;;5054750;28;20032;-67
2021/10/10 01:11:43;;;;;;;13.57;9.23;;;8.40;75.00;;;;;;5053124;28;20029;-67
2021/10/10 01:14:12;;;;;;;15.27;9.77;;;8.30;75.00;;;;;;5055030;28;20475;-67
2021/10/10 01:16:38;;;;;;;15.77;9.82;;;8.40;75.10;;;;;;5057661;28;20837;-67
2021/10/10 01:19:04;;;;;;;16.83;9.57;;;8.40;75.10;;;;;;5057216;28;20120;-67
2021/10/10 01:21:30;;;;;;;15.63;9.75;;;8.40;75.00;;;;;;5056321;28;20466;-67
2021/10/10 01:23:55;;;;;;;15.60;9.98;;;8.30;75.00;;;;;;5053170;28;20523;-67
2021/10/10 01:26:22;;;;;;;17.00;9.63;;;8.30;75.00;;;;;;5053793;28;20055;-67
2021/10/10 01:28:47;;;;;;;19.40;10.43;;;8.30;74.90;;;;;;5055004;28;20095;-66
2021/10/10 01:31:13;;;;;;;16.23;9.95;;;8.30;74.90;;;;;;5055280;28;20668;-67
2021/10/10 01:33:39;;;;;;;15.52;10.25;;;8.30;74.90;;;;;;5056487;28;20573;-67
2021/10/10 01:36:11;;;;;;;14.55;9.70;;;8.30;74.80;;;;;;5054913;28;20567;-67
2021/10/10 01:38:36;;;;;;;15.35;9.75;;;8.30;74.90;;;;;;5054336;28;20025;-67
2021/10/10 01:41:03;;;;;;;16.55;9.98;;;8.30;75.60;;;;;;5052808;28;20039;-67
2021/10/10 01:43:28;;;;;;;19.95;10.40;;;8.30;74.70;;;;;;5056443;28;20029;-67
2021/10/10 01:45:54;;;;;;;17.48;10.10;;;8.30;74.80;;;;;;5053359;28;20078;-67
2021/10/10 01:48:20;;;;;;;15.65;10.13;;;8.20;74.70;;;;;;5056020;28;20119;-67
2021/10/10 01:50:46;;;;;;;14.95;10.27;;;8.20;74.70;;;;;;5054444;28;20047;-67
2021/10/10 01:53:11;;;;;;;18.30;10.07;;;8.20;74.70;;;;;;5053838;28;20025;-67
2021/10/10 01:55:37;;;;;;;16.30;9.50;;;8.20;74.60;;;;;;5053700;28;20037;-67
2021/10/10 01:58:03;;;;;;;16.33;10.90;;;8.20;74.60;;;;;;5055270;28;20133;-67
2021/10/10 02:00:28;;;;;;;14.57;9.50;;;8.20;74.60;;;;;;5055503;28;20033;-66
2021/10/10 02:02:54;;;;;;;17.15;9.95;;;8.10;74.60;;;;;;5052655;28;20037;-67
2021/10/10 02:05:20;;;;;;;16.27;10.05;;;8.10;74.60;;;;;;5054579;28;20576;-67
2021/10/10 02:07:45;;;;;;;16.45;10.38;;;8.10;74.60;;;;;;5056313;28;20049;-67
2021/10/10 02:10:11;;;;;;;15.70;9.65;;;8.10;74.70;;;;;;5054258;28;20041;-67
2021/10/10 02:12:37;;;;;;;17.05;9.73;;;8.10;74.70;;;;;;5052224;28;20037;-67
2021/10/10 02:15:07;;;;;;;15.35;10.32;;;8.00;74.70;;;;;;5056661;28;20029;-67
2021/10/10 02:17:33;;;;;;;17.33;10.27;;;8.00;74.90;;;;;;5054729;28;20041;-67
2021/10/10 02:19:59;;;;;;;13.73;9.40;;;8.00;74.70;;;;;;5058343;28;20037;-67
2021/10/10 02:22:25;;;;;;;16.23;10.23;;;8.00;74.70;;;;;;5054362;28;20056;-67
2021/10/10 02:24:51;;;;;;;15.25;10.45;;;8.00;74.70;;;;;;5055747;28;20531;-67
2021/10/10 02:27:16;;;;;;;17.73;10.43;;;8.00;74.70;;;;;;5054745;28;20064;-67
2021/10/10 02:29:42;;;;;;;17.95;10.35;;;8.00;74.80;;;;;;5056222;28;20036;-66
2021/10/10 02:32:08;;;;;;;16.38;10.50;;;8.00;74.90;;;;;;5054228;28;20040;-66
2021/10/10 02:34:33;;;;;;;17.30;10.48;;;7.90;74.80;;;;;;5053601;28;20059;-67
2021/10/10 02:36:59;;;;;;;17.70;10.30;;;7.90;74.90;;;;;;5055543;28;20032;-66
2021/10/10 02:39:25;;;;;;;18.40;10.10;;;7.90;74.90;;;;;;5053464;28;22196;-66
2021/10/10 02:41:50;;;;;;;20.42;11.23;;;7.90;74.90;;;;;;5053993;28;20052;-67
2021/10/10 02:44:16;;;;;;;17.85;10.43;;;7.90;75.00;;;;;;5055547;28;20040;-67
2021/10/10 02:46:42;;;;;;;16.33;10.23;;;7.90;75.10;;;;;;5054951;28;20067;-67
2021/10/10 02:49:07;;;;;;;16.75;10.95;;;7.90;75.10;;;;;;5054833;28;20033;-67
2021/10/10 02:51:33;;;;;;;17.55;10.20;;;7.80;75.10;;;;;;5055370;28;20037;-67
2021/10/10 02:53:58;;;;;;;17.08;10.40;;;7.80;75.10;;;;;;5053982;28;20119;-67
2021/10/10 02:56:24;;;;;;;19.63;10.85;;;7.80;75.30;;;;;;5055280;28;20032;-67
2021/10/10 02:58:50;;;;;;;18.27;10.98;;;7.70;75.30;;;;;;5054652;28;20033;-67
2021/10/10 03:01:15;;;;;;;17.60;10.85;;;7.70;75.30;;;;;;5055095;28;20038;-67
2021/10/10 03:03:41;;;;;;;18.65;10.88;;;7.70;75.40;;;;;;5050415;28;20598;-67
2021/10/10 03:06:07;;;;;;;18.08;10.18;;;7.70;75.50;;;;;;5053823;28;20037;-67
2021/10/10 03:08:36;;;;;;;21.65;11.30;;;7.60;75.40;;;;;;5055040;28;20691;-67
2021/10/10 03:11:03;;;;;;;17.35;11.02;;;7.60;75.40;;;;;;5048372;28;20033;-66
2021/10/10 03:13:29;;;;;;;18.23;11.07;;;7.60;75.40;;;;;;5054374;28;20037;-67
2021/10/10 03:15:56;;;;;;;18.92;10.77;;;7.60;75.50;;;;;;5053507;28;20079;-67
2021/10/10 03:18:21;;;;;;;18.58;10.82;;;7.50;75.60;;;;;;5054574;28;20143;-67
2021/10/10 03:20:47;;;;;;;15.70;10.18;;;7.50;75.60;;;;;;5046323;28;20155;-65
2021/10/10 03:23:13;;;;;;;18.13;10.88;;;7.50;75.60;;;;;;5052148;28;20040;-67
2021/10/10 03:25:38;;;;;;;18.73;11.15;;;7.50;75.70;;;;;;5046639;28;20508;-67
2021/10/10 03:28:04;;;;;;;21.75;11.65;;;7.50;75.80;;;;;;5051250;28;20706;-66
2021/10/10 03:30:30;;;;;;;18.67;11.70;;;7.40;75.70;;;;;;5051860;28;20035;-67
2021/10/10 03:32:55;;;;;;;17.02;10.93;;;7.40;75.70;;;;;;5052312;28;20051;-67
2021/10/10 03:35:21;;;;;;;17.25;10.65;;;7.40;76.10;;;;;;5054189;28;20558;-66
2021/10/10 03:37:47;;;;;;;23.00;11.95;;;7.40;76.00;;;;;;5045897;28;20129;-67
2021/10/10 03:40:13;;;;;;;19.05;11.52;;;7.40;76.10;;;;;;5048167;28;20124;-66
2021/10/10 03:42:39;;;;;;;19.40;11.02;;;7.30;76.20;;;;;;5051310;28;20063;-67
2021/10/10 03:45:06;;;;;;;19.70;11.52;;;7.30;76.20;;;;;;5053859;28;20094;-66
2021/10/10 03:47:32;;;;;;;19.27;11.65;;;7.30;76.30;;;;;;5053222;28;20063;-66
2021/10/10 03:49:58;;;;;;;21.70;11.55;;;7.30;76.40;;;;;;5053060;28;20500;-65
2021/10/10 03:52:23;;;;;;;19.92;11.43;;;7.30;76.50;;;;;;5045894;28;20069;-68
2021/10/10 03:55:25;;;;;;;18.52;11.70;;;7.20;76.30;;;;;;5053629;28;20142;-67
2021/10/10 03:57:51;;;;;;;17.00;10.13;;;7.20;76.40;;;;;;5056433;28;20048;-67
2021/10/10 04:00:17;;;;;;;20.60;12.00;;;7.20;76.30;;;;;;5050963;28;20033;-67
2021/10/10 04:02:43;;;;;;;21.92;13.05;;;7.20;76.40;;;;;;5053597;28;20032;-66
2021/10/10 04:05:26;;;;;;;21.63;13.07;;;7.20;76.50;;;;;;5055138;28;20655;-66
2021/10/10 04:07:51;;;;;;;21.80;11.88;;;7.20;76.50;;;;;;5056271;28;20072;-67
2021/10/10 04:10:18;;;;;;;19.50;11.55;;;7.20;76.60;;;;;;5052173;28;20060;-66
2021/10/10 04:12:44;;;;;;;20.40;12.52;;;7.10;76.50;;;;;;5051400;28;20039;-67
2021/10/10 04:15:10;;;;;;;19.02;12.00;;;7.10;76.50;;;;;;5055495;28;20052;-66
2021/10/10 04:17:36;;;;;;;19.23;12.27;;;7.10;76.60;;;;;;5055428;28;20675;-66
2021/10/10 04:20:03;;;;;;;23.38;12.57;;;7.10;76.60;;;;;;5056499;28;20033;-66
2021/10/10 04:22:29;;;;;;;18.20;12.05;;;7.10;76.60;;;;;;5051702;28;20048;-66
2021/10/10 04:24:55;;;;;;;19.95;13.02;;;7.10;76.60;;;;;;5054487;28;20036;-67
2021/10/10 04:27:20;;;;;;;31.85;17.67;;;7.10;76.70;;;;;;5050626;28;20036;-66
2021/10/10 04:29:46;;;;;;;22.98;14.15;;;7.10;76.80;;;;;;5053866;28;20060;-66
2021/10/10 04:32:11;;;;;;;23.05;13.00;;;7.10;76.90;;;;;;5047447;28;20072;-66
2021/10/10 04:34:37;;;;;;;22.48;12.98;;;7.00;76.90;;;;;;5054199;28;20040;-66
2021/10/10 04:37:03;;;;;;;21.58;12.85;;;7.00;77.00;;;;;;5052483;28;20029;-67
2021/10/10 04:39:28;;;;;;;18.75;12.55;;;7.00;77.00;;;;;;5055915;28;20028;-66
2021/10/10 04:41:54;;;;;;;21.02;12.65;;;7.00;77.00;;;;;;5053164;28;20044;-66
2021/10/10 04:44:20;;;;;;;18.95;12.63;;;7.00;77.10;;;;;;5053401;28;20124;-66
2021/10/10 04:46:45;;;;;;;22.05;12.82;;;7.00;77.20;;;;;;5049625;28;20099;-66
2021/10/10 04:49:11;;;;;;;21.98;13.82;;;7.10;77.30;;;;;;5053624;28;20033;-67
2021/10/10 04:51:37;;;;;;;23.08;13.30;;;7.00;77.30;;;;;;5053301;28;20029;-66
2021/10/10 04:54:03;;;;;;;26.10;13.70;;;7.00;77.30;;;;;;5054479;28;20067;-66
2021/10/10 04:56:28;;;;;;;25.92;14.35;;;7.00;77.40;;;;;;5051031;28;20742;-66
2021/10/10 04:58:54;;;;;;;23.13;13.52;;;7.00;77.40;;;;;;5056564;28;20028;-66
2021/10/10 05:01:19;;;;;;;22.52;13.95;;;7.00;77.40;;;;;;5049496;28;20056;-67
2021/10/10 05:03:45;;;;;;;24.38;14.27;;;7.00;77.50;;;;;;5054805;28;20045;-66
2021/10/10 05:06:11;;;;;;;23.77;14.40;;;7.00;77.50;;;;;;5053479;28;20064;-66
2021/10/10 05:08:36;;;;;;;24.63;13.27;;;6.90;77.40;;;;;;5052086;28;20048;-67
2021/10/10 05:11:02;;;;;;;22.83;13.88;;;6.90;77.40;;;;;;5054532;28;20032;-66
2021/10/10 05:13:28;;;;;;;24.00;14.13;;;6.90;77.40;;;;;;5047359;28;20052;-66
2021/10/10 05:15:53;;;;;;;22.08;13.52;;;6.90;77.40;;;;;;5049789;28;20545;-68
2021/10/10 05:18:19;;;;;;;21.67;13.40;;;6.90;77.40;;;;;;5053630;28;20033;-66
2021/10/10 05:20:44;;;;;;;21.65;14.13;;;6.90;77.50;;;;;;5053303;28;20044;-67
2021/10/10 05:23:14;;;;;;;26.05;13.98;;;6.90;77.50;;;;;;5049991;28;20063;-66
2021/10/10 05:25:43;;;;;;;21.80;13.95;;;6.90;77.50;;;;;;5055321;28;20409;-67
2021/10/10 05:28:09;;;;;;;21.65;13.70;;;6.90;77.50;;;;;;5053101;28;20040;-66
2021/10/10 05:30:35;;;;;;;25.88;14.55;;;6.80;77.50;;;;;;5050520;28;20116;-66
2021/10/10 05:33:00;;;;;;;23.60;13.55;;;6.80;77.50;;;;;;5045455;28;20036;-67
2021/10/10 05:35:26;;;;;;;22.45;13.70;;;6.80;77.60;;;;;;5048852;28;20104;-66
2021/10/10 05:37:52;;;;;;;24.52;14.18;;;6.80;77.60;;;;;;5049679;28;20037;-66
2021/10/10 05:40:18;;;;;;;23.63;13.40;;;6.80;77.60;;;;;;5046117;28;20036;-67
2021/10/10 05:42:43;;;;;;;20.63;13.82;;;6.80;77.50;;;;;;5044961;28;20044;-66
2021/10/10 05:45:10;;;;;;;21.23;13.32;;;6.70;77.30;;;;;;5043039;28;20496;-65
2021/10/10 05:47:36;;;;;;;22.35;13.48;;;6.80;77.40;;;;;;5045586;28;20034;-66
2021/10/10 05:50:06;;;;;;;28.05;13.93;;;6.80;77.30;;;;;;5050006;28;20401;-66
2021/10/10 05:52:32;;;;;;;22.88;13.77;;;6.80;77.20;;;;;;5053471;28;20410;-67
2021/10/10 05:54:57;;;;;;;21.70;13.63;;;6.80;77.10;;;;;;5055214;28;20029;-67
2021/10/10 05:57:31;;;;;;;20.05;13.70;;;6.80;77.00;;;;;;5056601;28;20040;-66
2021/10/10 06:00:02;;;;;;;24.75;13.90;;;6.80;77.00;;;;;;5054717;28;20032;-67
2021/10/10 06:02:31;;;;;;;24.35;14.30;;;6.80;76.90;;;;;;5050099;28;20533;-67
2021/10/10 06:04:56;;;;;;;23.63;13.55;;;6.80;76.90;;;;;;5054448;28;20037;-67
2021/10/10 06:07:22;;;;;;;24.48;14.60;;;6.80;76.90;;;;;;5044309;28;20048;-66
2021/10/10 06:09:48;;;;;;;28.55;14.02;;;6.90;77.00;;;;;;5050667;28;20604;-67
2021/10/10 06:12:13;;;;;;;22.90;14.15;;;6.80;76.90;;;;;;5047362;28;20127;-66
2021/10/10 06:14:39;;;;;;;24.90;14.73;;;6.90;77.00;;;;;;5047296;28;20028;-66
2021/10/10 06:17:06;;;;;;;23.75;14.20;;;6.90;77.10;;;;;;5050073;28;20086;-67
2021/10/10 06:19:32;;;;;;;24.42;14.07;;;6.90;77.10;;;;;;5053761;28;20041;-66
2021/10/10 06:21:58;;;;;;;26.25;15.13;;;6.90;77.10;;;;;;5052247;28;20033;-66
2021/10/10 06:24:24;;;;;;;24.98;15.02;;;6.90;77.10;;;;;;5052127;28;20446;-66
2021/10/10 06:26:49;;;;;;;33.88;16.85;;;6.90;77.20;;;;;;5051881;28;20068;-66
2021/10/10 06:29:15;;;;;;;41.17;19.58;;;6.90;77.30;;;;;;5052383;28;20033;-66
2021/10/10 06:31:41;;;;;;;40.92;17.63;;;6.90;77.50;;;;;;5043603;28;20029;-67
2021/10/10 06:34:06;;;;;;;64.65;20.17;;;6.90;77.60;;;;;;5046010;28;20029;-66
2021/10/10 06:36:33;;;;;;;58.42;21.63;;;6.90;77.70;;;;;;5046109;28;20022;-67
2021/10/10 06:38:59;;;;;;;57.75;20.50;;;6.90;77.80;;;;;;5044863;28;20469;-67
2021/10/10 06:41:25;;;;;;;46.10;17.48;;;6.90;78.00;;;;;;5043935;28;20068;-66
2021/10/10 06:43:51;;;;;;;35.90;16.95;;;6.80;77.90;;;;;;5043933;28;20154;-67
2021/10/10 06:46:16;;;;;;;53.63;17.08;;;6.80;78.00;;;;;;5044740;28;20033;-66
2021/10/10 06:48:42;;;;;;;36.50;16.33;;;6.80;78.00;;;;;;5043403;28;20742;-66
2021/10/10 06:51:07;;;;;;;48.60;16.35;;;6.80;78.10;;;;;;5051226;28;20045;-67
2021/10/10 06:53:33;;;;;;;30.55;15.40;;;6.70;78.30;;;;;;5047002;28;20055;-67
2021/10/10 06:56:04;;;;;;;24.67;15.18;;;6.70;78.60;;;;;;5045196;28;20109;-67
2021/10/10 06:58:30;;;;;;;26.25;14.98;;;6.70;78.90;;;;;;5049508;28;20072;-66
2021/10/10 07:00:55;;;;;;;31.85;14.45;;;6.70;79.10;;;;;;5052718;28;20032;-66
2021/10/10 07:03:21;;;;;;;25.08;14.73;;;6.70;79.30;;;;;;5045380;28;20037;-67
2021/10/10 07:05:47;;;;;;;32.53;14.13;;;6.80;79.40;;;;;;5047249;28;20037;-66
2021/10/10 07:08:12;;;;;;;31.92;14.63;;;6.80;79.40;;;;;;5046445;28;21030;-65
2021/10/10 07:10:38;;;;;;;21.83;14.32;;;6.90;79.40;;;;;;5046282;28;20033;-67
2021/10/10 07:13:04;;;;;;;23.20;14.15;;;6.90;79.50;;;;;;5043964;28;20060;-66
2021/10/10 07:15:29;;;;;;;24.40;14.32;;;6.90;79.60;;;;;;5049946;28;20098;-66
2021/10/10 07:18:03;;;;;;;45.40;16.10;;;6.90;79.60;;;;;;5047739;28;20404;-66
2021/10/10 07:23:27;;;;;;;31.98;16.15;;;7.00;79.40;;;;;;5043761;28;20079;-66
2021/10/10 07:25:54;;;;;;;24.75;14.85;;;7.00;79.50;;;;;;5036034;28;20041;-66
2021/10/10 07:28:20;;;;;;;23.55;15.27;;;7.00;79.40;;;;;;5032070;28;20396;-66
2021/10/10 07:30:48;;;;;;;26.33;15.48;;;7.10;79.80;;;;;;5033453;28;20041;-66
2021/10/10 07:33:14;;;;;;;25.33;16.40;;;7.10;79.90;;;;;;5032919;28;20060;-66
2021/10/10 07:35:39;;;;;;;27.40;17.48;;;7.20;80.00;;;;;;5035684;28;20041;-67
2021/10/10 07:38:05;;;;;;;27.52;16.38;;;7.20;79.90;;;;;;5032104;28;20614;-66
2021/10/10 07:40:31;;;;;;;28.35;16.83;;;7.30;79.80;;;;;;5024455;28;20076;-65
2021/10/10 07:42:56;;;;;;;26.92;16.23;;;7.30;79.50;;;;;;5036029;28;20266;-66
2021/10/10 07:45:24;;;;;;;29.17;17.10;;;7.30;79.40;;;;;;5032072;28;20089;-66
2021/10/10 07:47:55;;;;;;;30.65;17.00;;;7.30;79.30;;;;;;5031656;28;20041;-66
2021/10/10 07:50:22;;;;;;;28.80;17.35;;;7.30;79.30;;;;;;5029416;28;20046;-67
2021/10/10 07:52:48;;;;;;;28.98;17.10;;;7.30;79.60;;;;;;5019858;28;20057;-66
2021/10/10 07:55:15;;;;;;;31.08;17.67;;;7.30;79.60;;;;;;5032429;28;20090;-67
2021/10/10 07:57:40;;;;;;;28.10;16.88;;;7.40;79.50;;;;;;5035612;28;21145;-66
2021/10/10 08:00:09;;;;;;;30.98;17.70;;;7.40;79.30;;;;;;5033197;28;20044;-67
2021/10/10 08:02:59;;;;;;;27.63;17.23;;;7.40;79.30;;;;;;5036128;28;20064;-66
2021/10/10 08:05:28;;;;;;;30.40;17.55;;;7.40;79.50;;;;;;5034302;28;20069;-66
2021/10/10 08:07:54;;;;;;;29.40;16.80;;;7.40;79.20;;;;;;5040571;28;20045;-66
2021/10/10 08:10:21;;;;;;;30.67;17.40;;;7.40;79.30;;;;;;5029535;28;20080;-67
2021/10/10 08:12:47;;;;;;;31.33;17.75;;;7.40;79.30;;;;;;5034611;28;20068;-67
2021/10/10 08:15:13;;;;;;;27.58;18.17;;;7.40;79.30;;;;;;5030183;28;20155;-65
2021/10/10 08:17:39;;;;;;;29.67;17.48;;;7.40;79.40;;;;;;5031761;28;20175;-66
2021/10/10 08:20:07;;;;;;;30.73;18.55;;;7.30;79.40;;;;;;5028190;28;21893;-65
2021/10/10 08:22:35;;;;;;;32.17;17.35;;;7.40;79.90;;;;;;5032206;28;20630;-66
2021/10/10 08:25:06;;;;;;;29.00;17.42;;;7.40;80.60;;;;;;5031163;28;20051;-67
2021/10/10 08:27:33;;;;;;;29.25;18.15;;;7.50;79.80;;;;;;5033443;28;20542;-66
2021/10/10 08:29:59;;;;;;;32.70;18.48;;;7.50;79.60;;;;;;5028341;28;20041;-66
2021/10/10 08:32:24;;;;;;;30.52;18.45;;;7.50;79.60;;;;;;5027446;28;20450;-66
2021/10/10 08:34:50;;;;;;;28.92;17.98;;;7.50;79.80;;;;;;5030403;28;20048;-67
2021/10/10 08:37:16;;;;;;;27.55;18.45;;;7.60;79.80;;;;;;5031334;28;20036;-67
2021/10/10 08:39:41;;;;;;;31.33;19.40;;;7.60;79.80;;;;;;5034477;28;20698;-67
2021/10/10 08:42:11;;;;;;;29.73;17.73;;;7.70;79.70;;;;;;5038808;28;20150;-67
2021/10/10 08:44:41;;;;;;;28.95;17.63;;;7.70;79.80;;;;;;5031975;28;20037;-65
2021/10/10 08:47:14;;;;;;;29.75;18.30;;;7.80;79.80;;;;;;5030783;28;20032;-66
2021/10/10 08:49:40;;;;;;;27.08;17.52;;;7.90;79.70;;;;;;5030209;28;20061;-67
2021/10/10 08:52:14;;;;;;;30.95;18.13;;;7.90;79.60;;;;;;5034345;28;20036;-67
2021/10/10 08:54:41;;;;;;;29.52;17.52;;;8.10;79.60;;;;;;5029519;28;20129;-67
2021/10/10 08:57:09;;;;;;;29.52;17.92;;;8.10;79.40;;;;;;5036005;28;20051;-67
2021/10/10 08:59:42;;;;;;;29.63;18.88;;;8.10;79.40;;;;;;5036206;28;20405;-66
2021/10/10 09:02:17;;;;;;;32.13;18.90;;;8.20;79.50;;;;;;5028213;28;20045;-65
2021/10/10 09:04:43;;;;;;;;;;;8.30;79.30;;;;;;5032860;28;20576;-67
2021/10/10 09:07:08;;;;;;;26.95;16.80;;;8.40;79.30;;;;;;5030453;28;20018;-66
2021/10/10 09:09:36;;;;;;;27.73;17.83;;;8.40;78.70;;;;;;5026965;28;20726;-67
2021/10/10 09:12:06;;;;;;;30.35;18.10;;;8.50;78.60;;;;;;5024909;28;21242;-68
2021/10/10 09:14:41;;;;;;;26.33;17.30;;;8.50;78.40;;;;;;5033534;28;20033;-65
2021/10/10 09:17:17;;;;;;;25.75;16.98;;;8.50;78.60;;;;;;5030597;28;20033;-66
2021/10/10 09:19:59;;;;;;;26.92;17.58;;;8.60;78.60;;;;;;5034313;28;20032;-67
2021/10/10 09:22:26;;;;;;;29.17;18.15;;;8.60;78.40;;;;;;5035806;28;20177;-67
2021/10/10 09:24:54;;;;;;;27.38;17.67;;;8.70;78.20;;;;;;5031166;28;20045;-67
2021/10/10 09:27:28;;;;;;;29.70;18.10;;;8.80;78.20;;;;;;5029556;28;20037;-65
2021/10/10 09:29:55;;;;;;;28.58;17.40;;;8.80;77.90;;;;;;5029937;28;20037;-66
2021/10/10 09:32:25;;;;;;;30.00;18.38;;;8.80;77.70;;;;;;5027705;28;20036;-66
2021/10/10 09:34:51;;;;;;;29.77;19.23;;;8.90;77.90;;;;;;5037492;28;20198;-67
2021/10/10 09:40:06;;;;;;;28.45;19.13;;;9.00;77.60;;;;;;5052771;28;20028;-67
2021/10/10 09:42:38;;;;;;;31.52;19.27;;;9.00;77.30;;;;;;5041558;28;20120;-67
2021/10/10 09:45:41;;;;;;;30.33;18.35;;;9.00;77.30;;;;;;5048804;28;20036;-67
2021/10/10 09:48:07;;;;;;;29.63;18.48;;;9.10;77.40;;;;;;5051486;28;20028;-67
2021/10/10 09:50:37;;;;;;;27.38;18.35;;;9.10;77.00;;;;;;5049001;28;20044;-67
2021/10/10 09:53:10;;;;;;;33.15;19.10;;;9.10;76.50;;;;;;5049290;28;20037;-67
2021/10/10 09:55:37;;;;;;;29.67;19.10;;;9.10;76.60;;;;;;5052596;28;20057;-67
2021/10/10 09:58:04;;;;;;;28.83;18.77;;;9.10;76.80;;;;;;5054985;28;20127;-67
2021/10/10 10:00:32;;;;;;;29.13;18.27;;;9.10;76.80;;;;;;5050714;28;20037;-67
2021/10/10 10:03:10;;;;;;;25.88;18.02;;;9.10;76.70;;;;;;5053489;28;20075;-67
2021/10/10 10:05:37;;;;;;;27.98;18.30;;;9.10;76.60;;;;;;5053065;28;20032;-67
2021/10/10 10:08:03;;;;;;;33.28;18.58;;;9.20;76.80;;;;;;5047693;28;20424;-66
2021/10/10 10:10:31;;;;;;;31.35;18.42;;;9.20;76.80;;;;;;5047546;28;20033;-67
2021/10/10 10:13:00;;;;;;;26.45;17.50;;;9.20;76.80;;;;;;5052345;28;20040;-67
2021/10/10 10:15:31;;;;;;;30.02;18.13;;;9.20;76.90;;;;;;5044824;28;20036;-68
2021/10/10 10:17:58;;;;;;;24.88;16.63;;;9.30;77.00;;;;;;5056549;28;20064;-67
2021/10/10 10:20:26;;;;;;;24.63;17.13;;;9.30;76.90;;;;;;5055131;28;20037;-67
2021/10/10 10:22:54;;;;;;;30.40;18.05;;;9.40;76.80;;;;;;5050763;28;20175;-68
2021/10/10 10:25:22;;;;;;;28.00;17.13;;;9.50;76.80;;;;;;5053108;28;20138;-67
2021/10/10 10:27:49;;;;;;;25.85;17.92;;;9.50;76.70;;;;;;5054836;28;20037;-67
2021/10/10 10:30:16;;;;;;;25.48;16.50;;;9.60;76.50;;;;;;5054237;28;20377;-67
2021/10/10 10:32:42;;;;;;;23.75;16.45;;;9.60;76.30;;;;;;5054314;28;20260;-68
2021/10/10 10:35:16;;;;;;;24.40;16.25;;;9.70;76.10;;;;;;5056199;28;20032;-67
2021/10/10 10:37:42;;;;;;;28.30;16.80;;;9.80;76.10;;;;;;5051648;28;20036;-67
2021/10/10 10:40:17;;;;;;;26.70;16.15;;;9.80;76.00;;;;;;5054865;28;20042;-66
2021/10/10 10:42:47;;;;;;;25.23;16.10;;;9.90;76.00;;;;;;5052424;28;20423;-68
2021/10/10 10:45:31;;;;;;;24.02;15.73;;;10.00;76.10;;;;;;5053990;28;20572;-66
2021/10/10 10:47:59;;;;;;;22.27;14.77;;;10.00;76.00;;;;;;5055650;28;20037;-68
2021/10/10 10:50:27;;;;;;;23.88;15.95;;;10.20;76.90;;;;;;5059287;28;20044;-67
2021/10/10 10:53:07;;;;;;;25.08;16.35;;;10.20;75.80;;;;;;5057000;28;20036;-67
2021/10/10 10:55:39;;;;;;;26.40;16.73;;;10.30;75.20;;;;;;5056644;28;20033;-67
2021/10/10 10:58:10;;;;;;;24.67;15.13;;;10.40;75.10;;;;;;5055150;28;20328;-68
2021/10/10 11:00:35;;;;;;;23.27;15.50;;;10.50;75.10;;;;;;5058179;28;20033;-67
2021/10/10 11:03:34;;;;;;;27.00;15.40;;;10.60;75.10;;;;;;5058905;28;20040;-67
2021/10/10 11:06:05;;;;;;;26.42;15.52;;;10.70;74.60;;;;;;5045700;28;20524;-67
2021/10/10 11:08:34;;;;;;;28.73;16.25;;;10.80;74.40;;;;;;5053930;28;20041;-68
2021/10/10 11:11:03;;;;;;;25.83;15.57;;;10.80;74.30;;;;;;5047731;28;20087;-68
2021/10/10 11:13:34;;;;;;;19.35;13.90;;;10.90;74.20;;;;;;5058485;28;20416;-67
2021/10/10 11:16:12;;;;;;;22.30;13.43;;;11.00;74.10;;;;;;5053378;28;20039;-67
2021/10/10 11:18:46;;;;;;;18.63;13.18;;;11.20;73.50;;;;;;5054482;28;20536;-67
2021/10/10 11:21:13;;;;;;;21.23;14.25;;;11.30;73.30;;;;;;5058878;28;20041;-67
2021/10/10 11:23:39;;;;;;;20.50;13.63;;;11.30;73.60;;;;;;5056615;28;20112;-67
2021/10/10 11:26:10;;;;;;;17.33;12.32;;;11.40;73.40;;;;;;5058114;28;20508;-67
2021/10/10 11:28:57;;;;;;;19.10;13.35;;;11.50;73.40;;;;;;5057733;28;20036;-67
2021/10/10 11:31:25;;;;;;;17.63;12.80;;;11.70;71.70;;;;;;5054660;28;20040;-68
2021/10/10 11:33:57;;;;;;;19.48;12.82;;;11.80;72.30;;;;;;5056601;28;20029;-68
2021/10/10 11:36:33;;;;;;;19.45;13.32;;;11.90;72.30;;;;;;5057915;28;20037;-68
2021/10/10 11:39:02;;;;;;;16.92;12.55;;;12.00;71.10;;;;;;5056718;28;20450;-67
2021/10/10 11:41:28;;;;;;;21.25;14.10;;;12.10;71.40;;;;;;5058262;28;20057;-67
2021/10/10 11:44:05;;;;;;;22.30;12.98;;;12.10;70.40;;;;;;5056008;28;20648;-68
2021/10/10 11:46:38;;;;;;;23.05;13.07;;;12.20;69.90;;;;;;5057073;28;20041;-68
2021/10/10 11:49:55;;;;;;;16.83;11.77;;;12.30;68.30;;;;;;5057414;28;20115;-68
2021/10/10 11:52:33;;;;;;;18.52;11.85;;;12.40;67.80;;;;;;5057962;28;20534;-67
2021/10/10 11:55:05;;;;;;;19.98;12.85;;;12.40;69.30;;;;;;5057250;28;20595;-67
2021/10/10 11:57:31;;;;;;;18.05;11.85;;;12.50;69.00;;;;;;5056799;28;20462;-68
2021/10/10 12:00:01;;;;;;;16.45;11.25;;;12.50;67.90;;;;;;5057203;28;20043;-67
2021/10/10 12:02:37;;;;;;;18.35;11.63;;;12.60;68.20;;;;;;5054811;28;20024;-68
2021/10/10 12:05:13;;;;;;;17.85;11.98;;;12.70;66.90;;;;;;5056928;28;20556;-68
2021/10/10 12:07:41;;;;;;;18.42;12.27;;;12.70;66.40;;;;;;5057508;28;20044;-67
2021/10/10 12:10:09;;;;;;;18.27;11.57;;;12.70;66.60;;;;;;5050300;28;20515;-68
2021/10/10 12:12:36;;;;;;;18.67;12.02;;;12.80;67.10;;;;;;5049661;28;20116;-67
2021/10/10 12:15:03;;;;;;;17.75;11.38;;;12.80;67.10;;;;;;5054357;28;20044;-68
2021/10/10 12:17:44;;;;;;;15.55;11.30;;;12.80;67.10;;;;;;5056243;28;20118;-68
2021/10/10 12:20:15;;;;;;;16.90;10.63;;;12.80;65.80;;;;;;5058486;28;20038;-68
2021/10/10 12:22:45;;;;;;;14.57;10.73;;;12.90;66.60;;;;;;5058008;28;20036;-68
2021/10/10 12:25:29;;;;;;;17.30;10.75;;;12.90;66.70;;;;;;5056814;28;20037;-68
2021/10/10 12:27:59;;;;;;;14.65;10.07;;;13.00;66.50;;;;;;5055533;28;20037;-68
2021/10/10 12:30:36;;;;;;;15.48;11.15;;;13.00;66.30;;;;;;5056254;28;20041;-68
2021/10/10 12:33:25;;;;;;;14.93;11.13;;;13.10;66.00;;;;;;5055703;28;20058;-68
2021/10/10 12:35:58;;;;;;;18.05;11.20;;;13.10;63.40;;;;;;5056113;28;20063;-68
2021/10/10 12:38:28;;;;;;;16.48;10.95;;;13.10;65.00;;;;;;5056384;28;20431;-69
2021/10/10 12:40:54;;;;;;;16.13;10.80;;;13.20;64.40;;;;;;5056526;28;20032;-68
2021/10/10 12:43:41;;;;;;;20.30;10.85;;;13.20;64.20;;;;;;5055680;28;20037;-68
2021/10/10 12:46:06;;;;;;;14.32;9.65;;;13.20;63.20;;;;;;5055506;28;20128;-68